Washington, IA

8:07 PM CST on February 06, 2016 (GMT -0600)
Washington Municipal

Weather History for KAWG - May, 2013

Change the Weather History Date:

Saturday, May 4, 2013

  Actual Average Record
Temperature  
Mean Temperature 54 °F -  
Max Temperature 64 °F 68 °F 84 °F (2000)
Min Temperature 44 °F 49 °F 30 °F (2011)
Degree Days  
Heating Degree Days 11    
Growing Degree Days 4 (Base 50)    
Moisture  
Dew Point 55 °F    
Average Humidity 96    
Maximum Humidity 100    
Minimum Humidity 77    
Precipitation  
Precipitation 0.56 in - - ()
Sea Level Pressure  
Sea Level Pressure 29.94 in    
Wind  
Wind Speed 9 mph (ESE)    
Max Wind Speed 16 mph    
Max Gust Speed 24 mph    
Visibility 6 miles    
Events Rain    
Averages and records for this station are not official NWS values.
T = Trace of Precipitation, MM = Missing Value Source: NWS Daily Summary

Daily Weather History Graph

Daily Weather History Graph

Search for Another Location

Airport or City:

Trip Planner

Search our weather history database for the weather conditions in past years. The results will help you decide how hot, cold, wet, or windy it might be!

Date:

Astronomy

May. 04, 2013 Rise Set
Actual Time 6:00 AM CDT 8:07 PM CDT
Civil Twilight 5:29 AM CDT 8:37 PM CDT
Nautical Twilight 4:52 AM CDT 9:15 PM CDT
Astronomical Twilight 4:11 AM CDT 9:56 PM CDT
Moon 3:01 AM CDT (5/4) 3:02 PM CDT (5/4)
Length of Visible Light 15h 08m
Length of Day
14h 07m
Waning Crescent, 27% of the Moon is Illuminated
May 4
Waning Crescent
May 9
New
May 17
First Quarter
May 24
Full
May 31
Last Quarter

Hourly Weather History & Observations

Time (CDT) Temp. Windchill Dew Point Humidity Pressure Visibility Wind Dir Wind Speed Gust Speed Precip Events Conditions
12:15 AM 44.6 °F 37.4 °F 44.6 °F 100% 29.86 in 10.0 mi North 16.1 mph 24.2 mph 0.02 in Rain Light Rain
12:35 AM 44.6 °F 38.4 °F 44.6 °F 100% 29.87 in 5.0 mi North 12.7 mph 18.4 mph 0.08 in Rain Rain
12:55 AM 44.6 °F 41.4 °F 44.6 °F 100% 29.89 in 1.8 mi North 5.8 mph - 0.22 in Rain Rain
1:15 AM 44.6 °F 38.8 °F 44.6 °F 100% 29.87 in 7.0 mi NNE 11.5 mph - 0.09 in Rain Light Rain
1:35 AM 46.4 °F 40.4 °F 46.4 °F 100% 29.86 in 5.0 mi NNE 13.8 mph - 0.11 in Rain Light Rain
1:55 AM 46.4 °F 40.7 °F 46.4 °F 100% 29.85 in 3.0 mi NNE 12.7 mph - 0.13 in Rain Rain
2:15 AM 48.2 °F - 48.2 °F 100% 29.84 in 2.0 mi NE 10.4 mph - N/A Rain Light Rain
2:35 AM 48.2 °F - 48.2 °F 100% 29.84 in 1.8 mi NE 11.5 mph - 0.01 in Rain Light Rain
2:55 AM 50.0 °F - 50.0 °F 100% 29.84 in 1.2 mi NE 9.2 mph - 0.01 in   Light Drizzle
3:15 AM 51.8 °F - 51.8 °F 100% 29.84 in 1.0 mi ENE 10.4 mph - N/A Rain Light Rain
3:35 AM 51.8 °F - 51.8 °F 100% 29.84 in 1.0 mi ENE 10.4 mph - N/A   Overcast
3:55 AM 53.6 °F - 53.6 °F 100% 29.84 in 0.8 mi ENE 11.5 mph - N/A   Drizzle
4:15 AM 53.6 °F - 53.6 °F 100% 29.84 in 1.2 mi ENE 12.7 mph - N/A   Overcast
4:35 AM 53.6 °F - 53.6 °F 100% 29.85 in 1.5 mi ENE 11.5 mph - N/A   Overcast
4:55 AM 53.6 °F - 53.6 °F 100% 29.85 in 1.5 mi NE 11.5 mph - N/A   Overcast
5:15 AM 53.6 °F - 53.6 °F 100% 29.85 in 1.0 mi ENE 10.4 mph - N/A   Overcast
5:35 AM 53.6 °F - 53.6 °F 100% 29.85 in 1.2 mi ENE 11.5 mph - N/A   Overcast
5:55 AM 53.6 °F - 53.6 °F 100% 29.86 in 1.2 mi ENE 11.5 mph - 0.01 in   Overcast
6:15 AM 53.6 °F - 53.6 °F 100% 29.86 in 1.2 mi ENE 8.1 mph - N/A   Overcast
6:35 AM 53.6 °F - 53.6 °F 100% 29.87 in 1.2 mi ENE 8.1 mph - N/A   Overcast
6:55 AM 53.6 °F - 53.6 °F 100% 29.87 in 1.8 mi ENE 9.2 mph - N/A   Overcast
7:15 AM 55.4 °F - 55.4 °F 100% 29.88 in 3.0 mi SE 9.2 mph - N/A   Overcast
7:35 AM 55.4 °F - 55.4 °F 100% 29.89 in 2.5 mi SSE 6.9 mph - N/A Rain Rain
7:55 AM 53.6 °F - 53.6 °F 100% 29.90 in 4.0 mi SE 9.2 mph - N/A   Overcast
8:15 AM 53.6 °F - 53.6 °F 100% 29.91 in 7.0 mi SSE 6.9 mph - N/A   Overcast
8:35 AM 53.6 °F - 53.6 °F 100% 29.92 in 7.0 mi SSE 5.8 mph - N/A   Overcast
8:55 AM 51.8 °F - 51.8 °F 100% 29.93 in 5.0 mi South 5.8 mph - N/A   Overcast
9:15 AM 51.8 °F - 51.8 °F 100% 29.93 in 7.0 mi SSE 4.6 mph - N/A Rain Light Rain
9:35 AM 51.8 °F - 51.8 °F 100% 29.94 in 7.0 mi SE 4.6 mph - N/A Rain Light Rain
9:55 AM 53.6 °F - 53.6 °F 100% 29.94 in 10.0 mi ESE 3.5 mph - N/A   Mostly Cloudy
10:15 AM 53.6 °F - 53.6 °F 100% 29.95 in 10.0 mi ESE 5.8 mph - N/A   Mostly Cloudy
10:35 AM 55.4 °F - 55.4 °F 100% 29.96 in 10.0 mi ESE 8.1 mph - N/A   Overcast
10:55 AM 55.4 °F - 55.4 °F 100% 29.96 in 10.0 mi ESE 8.1 mph - N/A   Overcast
11:15 AM 55.4 °F - 55.4 °F 100% 29.97 in 10.0 mi SSE 5.8 mph - N/A   Overcast
11:35 AM 55.4 °F - 55.4 °F 100% 29.97 in 10.0 mi SSE 3.5 mph - N/A Rain Light Rain
11:55 AM 55.4 °F - 55.4 °F 100% 29.97 in 7.0 mi Calm Calm - N/A Rain Rain
12:15 PM 55.4 °F - 55.4 °F 100% 29.96 in 4.0 mi ENE 4.6 mph - N/A Rain Light Rain
12:35 PM 57.2 °F - 57.2 °F 100% 29.95 in 10.0 mi East 8.1 mph - N/A   Overcast
12:55 PM 59.0 °F - 57.2 °F 94% 29.95 in 10.0 mi ENE 3.5 mph - N/A   Overcast
1:15 PM 60.8 °F - 59.0 °F 94% 29.95 in 10.0 mi East 5.8 mph - N/A   Mostly Cloudy
1:35 PM 60.8 °F - 60.8 °F 100% 29.95 in 10.0 mi ENE 5.8 mph - N/A   Mostly Cloudy
1:55 PM 62.6 °F - 60.8 °F 94% 29.95 in 10.0 mi NE 4.6 mph - N/A   Mostly Cloudy
2:15 PM 62.6 °F - 60.8 °F 94% 29.95 in 10.0 mi ENE 4.6 mph - N/A   Mostly Cloudy
2:35 PM 62.6 °F - 60.8 °F 94% 29.95 in 10.0 mi SE 10.4 mph - N/A   Mostly Cloudy
2:55 PM 62.6 °F - 60.8 °F 94% 29.95 in 10.0 mi SE 9.2 mph - N/A   Mostly Cloudy
3:15 PM 62.6 °F - 59.0 °F 88% 29.95 in 10.0 mi SE 8.1 mph - N/A   Mostly Cloudy
3:35 PM 64.4 °F - 57.2 °F 77% 29.95 in 10.0 mi SE 8.1 mph - N/A   Mostly Cloudy
3:55 PM 64.4 °F - 57.2 °F 77% 29.94 in 10.0 mi ESE 5.8 mph - N/A   Mostly Cloudy
4:15 PM 62.6 °F - 57.2 °F 82% 29.94 in 10.0 mi East 6.9 mph - N/A Rain Rain
4:35 PM 62.6 °F - 57.2 °F 82% 29.95 in 10.0 mi South 5.8 mph - N/A   Light Drizzle
4:55 PM 62.6 °F - 59.0 °F 88% 29.95 in 10.0 mi South 5.8 mph - N/A   Overcast
5:15 PM 62.6 °F - 57.2 °F 82% 29.96 in 10.0 mi SSE 4.6 mph - N/A   Overcast
5:35 PM 62.6 °F - 57.2 °F 82% 29.96 in 10.0 mi South 5.8 mph - N/A   Mostly Cloudy
5:55 PM 62.6 °F - 57.2 °F 82% 29.96 in 10.0 mi SSW 4.6 mph - N/A   Mostly Cloudy
6:15 PM 62.6 °F - 57.2 °F 82% 29.97 in 10.0 mi Calm Calm - N/A   Overcast
6:35 PM 60.8 °F - 57.2 °F 88% 29.97 in 10.0 mi West 4.6 mph - N/A   Overcast
6:55 PM 60.8 °F - 57.2 °F 88% 29.98 in 10.0 mi SW 4.6 mph - N/A Rain Rain
7:15 PM 59.0 °F - 57.2 °F 94% 29.98 in 10.0 mi West 5.8 mph - 0.01 in Rain Light Rain
7:35 PM 59.0 °F - 57.2 °F 94% 29.99 in 7.0 mi SSW 8.1 mph - 0.04 in Rain Rain
7:55 PM 59.0 °F - 57.2 °F 94% 30.00 in 4.0 mi Calm Calm - 0.11 in Rain Rain
8:15 PM 57.2 °F - 57.2 °F 100% 30.01 in 10.0 mi West 4.6 mph - 0.03 in Rain Rain
8:35 PM 57.2 °F - 57.2 °F 100% 30.01 in 5.0 mi Calm Calm - 0.04 in Rain Light Rain
8:55 PM 57.2 °F - 57.2 °F 100% 30.02 in 4.0 mi WNW 4.6 mph - 0.06 in Rain Rain
9:15 PM 57.2 °F - 57.2 °F 100% 30.02 in 4.0 mi WNW 3.5 mph - N/A   Overcast
9:35 PM 57.2 °F - 57.2 °F 100% 30.03 in 2.5 mi Calm Calm - 0.01 in   Heavy Drizzle
9:55 PM 57.2 °F - 57.2 °F 100% 30.03 in 3.0 mi Calm Calm - 0.02 in   Light Drizzle
10:15 PM 57.2 °F - 57.2 °F 100% 30.04 in 3.0 mi SSW 3.5 mph - N/A   Overcast
10:35 PM 55.4 °F - 55.4 °F 100% 30.04 in 10.0 mi South 9.2 mph - N/A   Overcast
10:55 PM 55.4 °F - 55.4 °F 100% 30.04 in 10.0 mi SSW 4.6 mph - N/A   Overcast
11:15 PM 55.4 °F - 55.4 °F 100% 30.05 in 10.0 mi SW 3.5 mph - N/A   Overcast
11:35 PM 55.4 °F - 55.4 °F 100% 30.05 in 10.0 mi Calm Calm - N/A   Overcast
11:55 PM 55.4 °F - 55.4 °F 100% 30.05 in 10.0 mi Calm Calm - N/A   Overcast